Terminal Aerodrome Forecast
Issued by NWS Tampa Bay Area, FL

Home | Current Version | Previous Version | Text Only | Print | Product List | Glossary On
Versions: 1 2 3 4 5 6 7 8 9 10 11 12 13 14 15
000
FTUS42 KTBW 041720
TAFFMY
TAF
KFMY 041720Z 0418/0518 21005KT P6SM SCT035 SCT250
     FM042000 25007KT P6SM VCTS SCT040CB BKN250
     FM050000 29004KT P6SM SCT050 BKN250
     FM050400 VRB03KT P6SM SCT250=

USA.gov is the U.S. government's official web portal to all federal, state and local government web resources and services.